الصفحة الرئيسية
METAR-TAF:

METAR-TAF

مطار :

تيجوسيجالبا, هندوراس

دائرة عرض: 14-03N, خط طول: 087-13W, ارتفاع: 994 متر

مراقبة الطقس الحالي

تاريخ ووقت الإصدار 1ساعة و 1 دقيقة قبل الساعة 10:00UTC
ريح 6 عقدة من الشمال/الشمال الشرقي
درجة الحرارة 18°درجة مئوية
الرطوبة 77%
ضغط 1020 hPa
الرؤية 10 كم أو أكثر
غيوم قليلة على ارتفاع 2000 قدم
غيوم متفرقة على ارتفاع 8000 قدم

METAR: MHTG 121000Z 03006KT 9999 FEW020 SCT080 18/14 Q1020 A3012 NOSIG

زمن: 05:01 (11:01 UTC)

توقعات

تاريخ ووقت الإصدار 6ساعات و 36 دقيقة قبل الساعة 04:25UTC
التوقعات صالحة من12 الساعة 06 UTC إلى 13 الساعة 06 UTC
ريح 4 عقدة من الشمال
الرؤية: 8000 متر
غيوم قليلة على ارتفاع 800 قدم
غيوم مفككة على ارتفاع 2600 قدم
أصبح
من 12 الساعة 14 UTC إلى 12 الساعة 16 UTC
الرؤية 10 كم أو أكثر
غيوم متفرقة على ارتفاع 2800 قدم
أصبح
من 12 الساعة 20 UTC إلى 12 الساعة 22 UTC
غيوم متفرقة على ارتفاع 3000 قدم, مزن ركامية عمودية.
غيوم متفرقة على ارتفاع 8000 قدم

TAF: MHTG 120425Z 1206/1306 36004KT 8000 FEW008 BKN026 TX26/1220Z TN16/1212Z BECMG 1214/1216 9999 SCT028 BECMG 1220/1222 SCT030TCU SCT080

أرصاد الطقس والتوقعات من أكثر من 4000 مطار (تقارير الطقس للمطار METAR والتنبؤ بالطقس بالمطارTAF).

المحطات المتاحة هي النقط الصفراء والحمراء على الخريطة.

حرك المؤشر فوق النقطة لمعرفة اسم المحطة.

ثم انقر لمعرفة أرصاد وتوقعات الطقس.

لتغيير الخارطة: اضغط على الأزرار الخضراء مع رمز الصليب الأسود للتكبير. على الزر الأخضر مع شرطة للتصغير، أو على الأسهم الخضراء للخرائط المجاورة.


METAR-TAF: